sensor_id;sensor_type;location;lat;lon;timestamp;pressure;altitude;pressure_sealevel;temperature;humidity
8637;BME280;4356;49.068;8.658;2022-08-19T00:01:18;99437.63;;;29.01;38.09
8637;BME280;4356;49.068;8.658;2022-08-19T00:03:44;99443.69;;;29.03;38.10
8637;BME280;4356;49.068;8.658;2022-08-19T00:06:10;99445.44;;;28.99;38.19
8637;BME280;4356;49.068;8.658;2022-08-19T00:08:35;99444.84;;;29.02;38.28
8637;BME280;4356;49.068;8.658;2022-08-19T00:11:01;99442.69;;;28.99;38.16
8637;BME280;4356;49.068;8.658;2022-08-19T00:13:27;99439.41;;;28.97;38.09
8637;BME280;4356;49.068;8.658;2022-08-19T00:15:54;99444.31;;;29.00;38.37
8637;BME280;4356;49.068;8.658;2022-08-19T00:18:20;99454.53;;;28.99;38.18
8637;BME280;4356;49.068;8.658;2022-08-19T00:20:45;99456.00;;;28.97;38.21
8637;BME280;4356;49.068;8.658;2022-08-19T00:23:11;99453.22;;;28.97;38.12
8637;BME280;4356;49.068;8.658;2022-08-19T00:25:36;99448.78;;;28.96;38.29
8637;BME280;4356;49.068;8.658;2022-08-19T00:28:02;99445.19;;;28.95;38.07
8637;BME280;4356;49.068;8.658;2022-08-19T00:30:28;99445.50;;;28.94;38.41
8637;BME280;4356;49.068;8.658;2022-08-19T00:32:53;99455.47;;;28.95;38.26
8637;BME280;4356;49.068;8.658;2022-08-19T00:35:22;99459.94;;;28.91;38.16
8637;BME280;4356;49.068;8.658;2022-08-19T00:37:48;99457.41;;;28.94;38.17
8637;BME280;4356;49.068;8.658;2022-08-19T00:40:15;99473.78;;;28.91;38.19
8637;BME280;4356;49.068;8.658;2022-08-19T00:42:41;99455.84;;;28.88;38.11
8637;BME280;4356;49.068;8.658;2022-08-19T00:45:17;99460.78;;;28.91;38.28
8637;BME280;4356;49.068;8.658;2022-08-19T00:47:44;99451.13;;;28.89;38.28
8637;BME280;4356;49.068;8.658;2022-08-19T00:50:11;99444.47;;;28.90;38.09
8637;BME280;4356;49.068;8.658;2022-08-19T00:52:42;99426.84;;;28.86;38.16
8637;BME280;4356;49.068;8.658;2022-08-19T00:55:23;99417.94;;;28.89;38.37
8637;BME280;4356;49.068;8.658;2022-08-19T00:57:54;99400.00;;;28.86;38.50
8637;BME280;4356;49.068;8.658;2022-08-19T01:00:21;99404.72;;;28.86;38.15
8637;BME280;4356;49.068;8.658;2022-08-19T01:02:47;99413.31;;;28.84;38.08
8637;BME280;4356;49.068;8.658;2022-08-19T01:05:16;99426.63;;;28.82;38.22
8637;BME280;4356;49.068;8.658;2022-08-19T01:07:44;99427.44;;;28.83;38.31
8637;BME280;4356;49.068;8.658;2022-08-19T01:10:15;99429.94;;;28.84;38.20
8637;BME280;4356;49.068;8.658;2022-08-19T01:12:44;99433.78;;;28.83;38.35
8637;BME280;4356;49.068;8.658;2022-08-19T01:15:12;99436.88;;;28.82;38.22
8637;BME280;4356;49.068;8.658;2022-08-19T01:17:39;99445.16;;;28.82;38.39
8637;BME280;4356;49.068;8.658;2022-08-19T01:20:10;99447.09;;;28.81;38.19
8637;BME280;4356;49.068;8.658;2022-08-19T01:22:43;99441.03;;;28.79;38.15
8637;BME280;4356;49.068;8.658;2022-08-19T01:25:09;99431.94;;;28.79;38.40
8637;BME280;4356;49.068;8.658;2022-08-19T01:27:40;99440.25;;;28.79;38.34
8637;BME280;4356;49.068;8.658;2022-08-19T01:30:07;99438.28;;;28.79;38.31
8637;BME280;4356;49.068;8.658;2022-08-19T01:32:32;99434.72;;;28.79;38.44
8637;BME280;4356;49.068;8.658;2022-08-19T01:34:58;99437.25;;;28.75;38.20
8637;BME280;4356;49.068;8.658;2022-08-19T01:37:26;99445.56;;;28.75;38.23
8637;BME280;4356;49.068;8.658;2022-08-19T01:39:51;99449.94;;;28.76;38.09
8637;BME280;4356;49.068;8.658;2022-08-19T01:42:17;99451.88;;;28.76;38.14
8637;BME280;4356;49.068;8.658;2022-08-19T01:44:42;99449.72;;;28.73;38.08
8637;BME280;4356;49.068;8.658;2022-08-19T01:47:08;99437.53;;;28.74;38.14
8637;BME280;4356;49.068;8.658;2022-08-19T01:49:35;99432.84;;;28.74;38.42
8637;BME280;4356;49.068;8.658;2022-08-19T01:52:02;99429.75;;;28.76;38.20
8637;BME280;4356;49.068;8.658;2022-08-19T01:54:28;99412.44;;;28.70;38.13
8637;BME280;4356;49.068;8.658;2022-08-19T01:56:59;99424.00;;;28.72;38.20
8637;BME280;4356;49.068;8.658;2022-08-19T01:59:26;99428.72;;;28.72;38.26
8637;BME280;4356;49.068;8.658;2022-08-19T02:01:51;99436.50;;;28.70;38.33
8637;BME280;4356;49.068;8.658;2022-08-19T02:04:17;99450.34;;;28.70;38.29
8637;BME280;4356;49.068;8.658;2022-08-19T02:06:42;99440.06;;;28.70;38.12
8637;BME280;4356;49.068;8.658;2022-08-19T02:09:09;99426.88;;;28.67;38.04
8637;BME280;4356;49.068;8.658;2022-08-19T02:11:36;99431.25;;;28.68;38.14
8637;BME280;4356;49.068;8.658;2022-08-19T02:14:05;99433.22;;;28.68;38.37
8637;BME280;4356;49.068;8.658;2022-08-19T02:16:31;99434.03;;;28.68;38.23
8637;BME280;4356;49.068;8.658;2022-08-19T02:18:58;99439.56;;;28.68;38.29
8637;BME280;4356;49.068;8.658;2022-08-19T02:21:26;99443.47;;;28.67;38.36
8637;BME280;4356;49.068;8.658;2022-08-19T02:23:51;99451.53;;;28.64;38.26
8637;BME280;4356;49.068;8.658;2022-08-19T02:26:17;99447.63;;;28.65;38.13
8637;BME280;4356;49.068;8.658;2022-08-19T02:28:43;99448.47;;;28.65;38.35
8637;BME280;4356;49.068;8.658;2022-08-19T02:31:12;99447.41;;;28.61;38.46
8637;BME280;4356;49.068;8.658;2022-08-19T02:33:38;99439.13;;;28.61;38.15
8637;BME280;4356;49.068;8.658;2022-08-19T02:36:05;99440.25;;;28.60;38.37
8637;BME280;4356;49.068;8.658;2022-08-19T02:38:31;99440.78;;;28.62;38.35
8637;BME280;4356;49.068;8.658;2022-08-19T02:41:00;99449.88;;;28.63;38.39
8637;BME280;4356;49.068;8.658;2022-08-19T02:43:27;99441.88;;;28.61;38.25
8637;BME280;4356;49.068;8.658;2022-08-19T02:45:54;99442.72;;;28.62;38.20
8637;BME280;4356;49.068;8.658;2022-08-19T02:48:21;99432.56;;;28.57;38.36
8637;BME280;4356;49.068;8.658;2022-08-19T02:50:49;99432.25;;;28.59;38.49
8637;BME280;4356;49.068;8.658;2022-08-19T02:53:22;99439.41;;;28.60;38.36
8637;BME280;4356;49.068;8.658;2022-08-19T02:55:49;99442.19;;;28.60;38.43
8637;BME280;4356;49.068;8.658;2022-08-19T02:58:15;99437.25;;;28.57;38.59
8637;BME280;4356;49.068;8.658;2022-08-19T03:00:47;99425.38;;;28.56;38.55
8637;BME280;4356;49.068;8.658;2022-08-19T03:03:14;99427.31;;;28.56;38.25
8637;BME280;4356;49.068;8.658;2022-08-19T03:05:41;99420.69;;;28.57;38.28
8637;BME280;4356;49.068;8.658;2022-08-19T03:08:07;99418.50;;;28.54;38.28
8637;BME280;4356;49.068;8.658;2022-08-19T03:10:33;99422.38;;;28.53;38.32
8637;BME280;4356;49.068;8.658;2022-08-19T03:12:58;99419.63;;;28.53;38.22
8637;BME280;4356;49.068;8.658;2022-08-19T03:15:24;99430.97;;;28.51;38.34
8637;BME280;4356;49.068;8.658;2022-08-19T03:17:49;99434.03;;;28.50;38.50
8637;BME280;4356;49.068;8.658;2022-08-19T03:20:15;99440.06;;;28.52;38.38
8637;BME280;4356;49.068;8.658;2022-08-19T03:22:40;99439.03;;;28.48;38.23
8637;BME280;4356;49.068;8.658;2022-08-19T03:25:06;99438.19;;;28.47;38.43
8637;BME280;4356;49.068;8.658;2022-08-19T03:27:31;99441.50;;;28.49;38.24
8637;BME280;4356;49.068;8.658;2022-08-19T03:29:57;99439.84;;;28.48;38.20
8637;BME280;4356;49.068;8.658;2022-08-19T03:32:22;99433.50;;;28.48;38.38
8637;BME280;4356;49.068;8.658;2022-08-19T03:34:48;99449.25;;;28.47;38.27
8637;BME280;4356;49.068;8.658;2022-08-19T03:37:14;99445.97;;;28.45;38.34
8637;BME280;4356;49.068;8.658;2022-08-19T03:39:41;99445.97;;;28.45;38.44
8637;BME280;4356;49.068;8.658;2022-08-19T03:42:08;99438.81;;;28.44;38.59
8637;BME280;4356;49.068;8.658;2022-08-19T03:44:33;99440.44;;;28.45;38.33
8637;BME280;4356;49.068;8.658;2022-08-19T03:47:01;99428.31;;;28.41;38.59
8637;BME280;4356;49.068;8.658;2022-08-19T03:49:30;99429.69;;;28.43;38.49
8637;BME280;4356;49.068;8.658;2022-08-19T03:51:57;99443.50;;;28.43;38.46
8637;BME280;4356;49.068;8.658;2022-08-19T03:54:24;99447.41;;;28.42;38.42
8637;BME280;4356;49.068;8.658;2022-08-19T03:56:51;99443.28;;;28.40;38.34
8637;BME280;4356;49.068;8.658;2022-08-19T03:59:24;99450.44;;;28.41;38.45
8637;BME280;4356;49.068;8.658;2022-08-19T04:01:52;99444.09;;;28.40;38.36
8637;BME280;4356;49.068;8.658;2022-08-19T04:04:17;99439.16;;;28.37;38.51
8637;BME280;4356;49.068;8.658;2022-08-19T04:06:43;99438.34;;;28.37;38.41
8637;BME280;4356;49.068;8.658;2022-08-19T04:09:10;99444.69;;;28.37;38.41
8637;BME280;4356;49.068;8.658;2022-08-19T04:11:39;99451.03;;;28.38;38.53
8637;BME280;4356;49.068;8.658;2022-08-19T04:14:07;99451.66;;;28.35;38.41
8637;BME280;4356;49.068;8.658;2022-08-19T04:16:34;99454.41;;;28.35;38.73
8637;BME280;4356;49.068;8.658;2022-08-19T04:19:01;99462.69;;;28.35;38.45
8637;BME280;4356;49.068;8.658;2022-08-19T04:21:28;99458.59;;;28.32;38.64
8637;BME280;4356;49.068;8.658;2022-08-19T04:23:54;99466.88;;;28.32;38.67
8637;BME280;4356;49.068;8.658;2022-08-19T04:26:29;99465.78;;;28.33;38.71
8637;BME280;4356;49.068;8.658;2022-08-19T04:29:00;99458.06;;;28.30;38.62
8637;BME280;4356;49.068;8.658;2022-08-19T04:31:27;99452.81;;;28.29;38.37
8637;BME280;4356;49.068;8.658;2022-08-19T04:33:55;99462.78;;;28.30;38.63
8637;BME280;4356;49.068;8.658;2022-08-19T04:36:24;99460.00;;;28.30;38.62
8637;BME280;4356;49.068;8.658;2022-08-19T04:38:54;99466.13;;;28.27;38.85
8637;BME280;4356;49.068;8.658;2022-08-19T04:41:20;99465.28;;;28.26;38.60
8637;BME280;4356;49.068;8.658;2022-08-19T04:44:04;99476.34;;;28.26;38.51
8637;BME280;4356;49.068;8.658;2022-08-19T04:46:31;99473.06;;;28.24;38.50
8637;BME280;4356;49.068;8.658;2022-08-19T04:48:57;99466.72;;;28.24;38.63
8637;BME280;4356;49.068;8.658;2022-08-19T04:51:23;99465.06;;;28.23;38.65
8637;BME280;4356;49.068;8.658;2022-08-19T04:53:48;99465.88;;;28.23;38.85
8637;BME280;4356;49.068;8.658;2022-08-19T04:56:16;99459.25;;;28.24;38.72
8637;BME280;4356;49.068;8.658;2022-08-19T04:58:44;99463.44;;;28.22;38.79
8637;BME280;4356;49.068;8.658;2022-08-19T05:01:17;99468.13;;;28.21;38.63
8637;BME280;4356;49.068;8.658;2022-08-19T05:03:42;99467.59;;;28.19;38.77
8637;BME280;4356;49.068;8.658;2022-08-19T05:06:11;99477.53;;;28.20;38.80
8637;BME280;4356;49.068;8.658;2022-08-19T05:08:38;99468.72;;;28.18;38.75
8637;BME280;4356;49.068;8.658;2022-08-19T05:11:20;99464.53;;;28.21;38.85
8637;BME280;4356;49.068;8.658;2022-08-19T05:13:47;99464.53;;;28.21;38.70
8637;BME280;4356;49.068;8.658;2022-08-19T05:16:16;99464.03;;;28.19;38.76
8637;BME280;4356;49.068;8.658;2022-08-19T05:18:42;99473.66;;;28.21;38.45
8637;BME280;4356;49.068;8.658;2022-08-19T05:21:26;99476.72;;;28.20;38.60
8637;BME280;4356;49.068;8.658;2022-08-19T05:24:11;99474.25;;;28.18;38.66
8637;BME280;4356;49.068;8.658;2022-08-19T05:26:41;99474.03;;;28.15;38.74
8637;BME280;4356;49.068;8.658;2022-08-19T05:29:07;99488.06;;;28.18;38.71
8637;BME280;4356;49.068;8.658;2022-08-19T05:31:34;99481.47;;;28.14;38.87
8637;BME280;4356;49.068;8.658;2022-08-19T05:34:00;99496.66;;;28.17;38.92
8637;BME280;4356;49.068;8.658;2022-08-19T05:36:27;99516.53;;;28.19;38.75
8637;BME280;4356;49.068;8.658;2022-08-19T05:38:53;99517.09;;;28.16;38.67
8637;BME280;4356;49.068;8.658;2022-08-19T05:41:20;99523.97;;;28.18;38.85
8637;BME280;4356;49.068;8.658;2022-08-19T05:43:45;99530.91;;;28.16;38.80
8637;BME280;4356;49.068;8.658;2022-08-19T05:46:19;99527.84;;;28.17;39.20
8637;BME280;4356;49.068;8.658;2022-08-19T05:48:45;99530.59;;;28.17;39.01
8637;BME280;4356;49.068;8.658;2022-08-19T05:51:11;99539.44;;;28.19;38.86
8637;BME280;4356;49.068;8.658;2022-08-19T05:53:36;99540.56;;;28.18;38.96
8637;BME280;4356;49.068;8.658;2022-08-19T05:56:06;99545.25;;;28.18;38.95
8637;BME280;4356;49.068;8.658;2022-08-19T05:58:33;99544.44;;;28.17;38.97
8637;BME280;4356;49.068;8.658;2022-08-19T06:00:59;99552.72;;;28.17;39.27
8637;BME280;4356;49.068;8.658;2022-08-19T06:03:30;99549.72;;;28.14;39.48
8637;BME280;4356;49.068;8.658;2022-08-19T06:05:57;99554.44;;;28.13;39.85
8637;BME280;4356;49.068;8.658;2022-08-19T06:08:25;99554.47;;;28.08;39.95
8637;BME280;4356;49.068;8.658;2022-08-19T06:10:51;99547.91;;;28.04;39.80
8637;BME280;4356;49.068;8.658;2022-08-19T06:13:16;99548.19;;;28.03;39.99
8637;BME280;4356;49.068;8.658;2022-08-19T06:15:45;99552.06;;;28.02;40.17
8637;BME280;4356;49.068;8.658;2022-08-19T06:18:13;99559.22;;;28.03;40.29
8637;BME280;4356;49.068;8.658;2022-08-19T06:20:40;99560.38;;;28.02;40.09
8637;BME280;4356;49.068;8.658;2022-08-19T06:23:06;99553.78;;;27.98;40.28
8637;BME280;4356;49.068;8.658;2022-08-19T06:25:32;99547.69;;;28.01;40.26
8637;BME280;4356;49.068;8.658;2022-08-19T06:27:57;99545.78;;;27.96;40.20
8637;BME280;4356;49.068;8.658;2022-08-19T06:30:23;99551.84;;;27.98;39.94
8637;BME280;4356;49.068;8.658;2022-08-19T06:32:49;99551.84;;;27.98;40.29
8637;BME280;4356;49.068;8.658;2022-08-19T06:35:14;99550.72;;;27.99;40.15
8637;BME280;4356;49.068;8.658;2022-08-19T06:37:40;99557.91;;;28.00;39.86
8637;BME280;4356;49.068;8.658;2022-08-19T06:40:07;99552.06;;;28.02;40.05
8637;BME280;4356;49.068;8.658;2022-08-19T06:42:36;99554.31;;;28.00;39.84
8637;BME280;4356;49.068;8.658;2022-08-19T06:45:04;99559.84;;;28.00;39.84
8637;BME280;4356;49.068;8.658;2022-08-19T06:47:31;99560.38;;;28.02;39.81
8637;BME280;4356;49.068;8.658;2022-08-19T06:49:59;99557.59;;;28.02;39.96
8637;BME280;4356;49.068;8.658;2022-08-19T06:52:31;99561.19;;;28.02;39.80
8637;BME280;4356;49.068;8.658;2022-08-19T06:54:57;99555.06;;;28.05;39.89
8637;BME280;4356;49.068;8.658;2022-08-19T06:57:24;99558.66;;;28.06;39.98
8637;BME280;4356;49.068;8.658;2022-08-19T06:59:50;99549.56;;;28.05;40.14
8637;BME280;4356;49.068;8.658;2022-08-19T07:02:17;99555.59;;;28.07;39.99
8637;BME280;4356;49.068;8.658;2022-08-19T07:04:42;99547.91;;;28.04;39.95
8637;BME280;4356;49.068;8.658;2022-08-19T07:07:11;99564.72;;;28.08;39.84
8637;BME280;4356;49.068;8.658;2022-08-19T07:09:41;99559.19;;;28.08;40.00
8637;BME280;4356;49.068;8.658;2022-08-19T07:12:14;99561.44;;;28.06;40.10
8637;BME280;4356;49.068;8.658;2022-08-19T07:14:42;99564.44;;;28.09;39.87
8637;BME280;4356;49.068;8.658;2022-08-19T07:17:11;99568.28;;;28.08;40.22
8637;BME280;4356;49.068;8.658;2022-08-19T07:19:38;99574.06;;;28.12;40.04
8637;BME280;4356;49.068;8.658;2022-08-19T07:22:06;99570.78;;;28.10;39.87
8637;BME280;4356;49.068;8.658;2022-08-19T07:24:32;99569.66;;;28.11;39.91
8637;BME280;4356;49.068;8.658;2022-08-19T07:27:00;99564.13;;;28.11;39.93
8637;BME280;4356;49.068;8.658;2022-08-19T07:29:28;99575.41;;;28.14;40.01
8637;BME280;4356;49.068;8.658;2022-08-19T07:31:55;99562.72;;;28.13;39.94
8637;BME280;4356;49.068;8.658;2022-08-19T07:34:22;99564.38;;;28.14;40.04
8637;BME280;4356;49.068;8.658;2022-08-19T07:36:49;99563.25;;;28.15;40.06
8637;BME280;4356;49.068;8.658;2022-08-19T07:39:21;99558.31;;;28.12;40.27
8637;BME280;4356;49.068;8.658;2022-08-19T07:41:48;99564.38;;;28.14;40.08
8637;BME280;4356;49.068;8.658;2022-08-19T07:44:15;99566.53;;;28.17;39.86
8637;BME280;4356;49.068;8.658;2022-08-19T07:46:44;99567.38;;;28.18;39.90
8637;BME280;4356;49.068;8.658;2022-08-19T07:49:11;99575.06;;;28.21;40.02
8637;BME280;4356;49.068;8.658;2022-08-19T07:51:44;99565.44;;;28.18;40.00
8637;BME280;4356;49.068;8.658;2022-08-19T07:54:09;99562.38;;;28.20;39.65
8637;BME280;4356;49.068;8.658;2022-08-19T07:56:37;99563.25;;;28.15;39.77
8637;BME280;4356;49.068;8.658;2022-08-19T07:59:03;99570.34;;;28.21;40.07
8637;BME280;4356;49.068;8.658;2022-08-19T08:01:30;99572.81;;;28.23;39.93
8637;BME280;4356;49.068;8.658;2022-08-19T08:03:57;99574.47;;;28.24;40.02
8637;BME280;4356;49.068;8.658;2022-08-19T08:06:42;99578.34;;;28.23;39.96
8637;BME280;4356;49.068;8.658;2022-08-19T08:09:32;99570.59;;;28.25;39.96
8637;BME280;4356;49.068;8.658;2022-08-19T08:12:30;99570.81;;;28.28;40.01
8637;BME280;4356;49.068;8.658;2022-08-19T08:14:58;99558.44;;;28.26;40.08
8637;BME280;4356;49.068;8.658;2022-08-19T08:17:26;99567.50;;;28.31;39.88
8637;BME280;4356;49.068;8.658;2022-08-19T08:19:53;99576.09;;;28.30;39.80
8637;BME280;4356;49.068;8.658;2022-08-19T08:22:21;99571.59;;;28.34;39.67
8637;BME280;4356;49.068;8.658;2022-08-19T08:25:08;99571.81;;;28.37;39.66
8637;BME280;4356;49.068;8.658;2022-08-19T08:27:38;99570.72;;;28.38;39.77
8637;BME280;4356;49.068;8.658;2022-08-19T08:30:18;99578.41;;;28.41;39.77
8637;BME280;4356;49.068;8.658;2022-08-19T08:32:44;99573.47;;;28.38;39.71
8637;BME280;4356;49.068;8.658;2022-08-19T08:35:13;99573.94;;;28.46;39.76
8637;BME280;4356;49.068;8.658;2022-08-19T08:37:44;99588.00;;;28.49;39.80
8637;BME280;4356;49.068;8.658;2022-08-19T08:40:28;99586.38;;;28.48;39.85
8637;BME280;4356;49.068;8.658;2022-08-19T08:46:00;99583.78;;;28.57;39.45
8637;BME280;4356;49.068;8.658;2022-08-19T08:48:39;99585.72;;;28.56;39.72
8637;BME280;4356;49.068;8.658;2022-08-19T08:51:11;99574.91;;;28.60;39.76
8637;BME280;4356;49.068;8.658;2022-08-19T08:53:38;99576.25;;;28.62;39.47
8637;BME280;4356;49.068;8.658;2022-08-19T08:56:06;99578.13;;;28.67;39.41
8637;BME280;4356;49.068;8.658;2022-08-19T08:58:58;99588.31;;;28.71;39.44
8637;BME280;4356;49.068;8.658;2022-08-19T09:01:25;99588.00;;;28.73;39.31
8637;BME280;4356;49.068;8.658;2022-08-19T09:03:52;99584.09;;;28.74;38.97
8637;BME280;4356;49.068;8.658;2022-08-19T09:06:36;99590.16;;;28.76;39.07
8637;BME280;4356;49.068;8.658;2022-08-19T09:14:34;99591.16;;;28.85;39.07
8637;BME280;4356;49.068;8.658;2022-08-19T09:17:02;99588.06;;;28.86;38.90
8637;BME280;4356;49.068;8.658;2022-08-19T09:19:30;99588.59;;;28.88;38.84
8637;BME280;4356;49.068;8.658;2022-08-19T09:21:56;99586.66;;;28.89;38.99
8637;BME280;4356;49.068;8.658;2022-08-19T09:24:21;99584.97;;;28.93;39.07
8637;BME280;4356;49.068;8.658;2022-08-19T09:26:47;99585.50;;;28.95;38.91
8637;BME280;4356;49.068;8.658;2022-08-19T09:29:12;99574.72;;;28.93;38.83
8637;BME280;4356;49.068;8.658;2022-08-19T09:31:38;99574.34;;;29.00;38.67
8637;BME280;4356;49.068;8.658;2022-08-19T09:34:04;99572.63;;;29.04;38.78
8637;BME280;4356;49.068;8.658;2022-08-19T09:36:31;99574.47;;;29.08;38.35
8637;BME280;4356;49.068;8.658;2022-08-19T09:38:59;99567.84;;;29.09;38.48
8637;BME280;4356;49.068;8.658;2022-08-19T09:41:26;99564.19;;;29.14;38.19
8637;BME280;4356;49.068;8.658;2022-08-19T09:43:54;99559.78;;;29.13;38.17
8637;BME280;4356;49.068;8.658;2022-08-19T09:46:26;99564.41;;;29.17;38.11
8637;BME280;4356;49.068;8.658;2022-08-19T09:48:52;99558.28;;;29.20;38.40
8637;BME280;4356;49.068;8.658;2022-08-19T09:51:24;99558.78;;;29.22;38.46
8637;BME280;4356;49.068;8.658;2022-08-19T09:53:52;99577.81;;;29.29;38.15
8637;BME280;4356;49.068;8.658;2022-08-19T09:56:21;99571.66;;;29.32;37.97
8637;BME280;4356;49.068;8.658;2022-08-19T09:58:48;99565.00;;;29.33;38.09
8637;BME280;4356;49.068;8.658;2022-08-19T10:01:20;99573.00;;;29.34;37.88
8637;BME280;4356;49.068;8.658;2022-08-19T10:03:49;99574.84;;;29.39;37.25
8637;BME280;4356;49.068;8.658;2022-08-19T10:06:15;99579.81;;;29.42;37.37
8637;BME280;4356;49.068;8.658;2022-08-19T10:08:41;99577.63;;;29.39;37.05
8637;BME280;4356;49.068;8.658;2022-08-19T10:11:08;99581.66;;;29.47;37.31
8637;BME280;4356;49.068;8.658;2022-08-19T10:13:35;99577.25;;;29.46;37.18
8637;BME280;4356;49.068;8.658;2022-08-19T10:16:10;99582.41;;;29.52;37.19
8637;BME280;4356;49.068;8.658;2022-08-19T10:18:37;99576.03;;;29.52;37.07
8637;BME280;4356;49.068;8.658;2022-08-19T10:23:37;99566.31;;;29.54;37.28
8637;BME280;4356;49.068;8.658;2022-08-19T10:26:05;99570.13;;;29.58;36.82
8637;BME280;4356;49.068;8.658;2022-08-19T10:28:34;99571.16;;;29.62;37.11
8637;BME280;4356;49.068;8.658;2022-08-19T10:31:06;99562.75;;;29.67;36.94
8637;BME280;4356;49.068;8.658;2022-08-19T10:33:33;99562.47;;;29.69;36.99
8637;BME280;4356;49.068;8.658;2022-08-19T10:36:01;99566.34;;;29.68;36.77
8637;BME280;4356;49.068;8.658;2022-08-19T10:38:27;99567.41;;;29.72;36.47
8637;BME280;4356;49.068;8.658;2022-08-19T10:40:54;99561.06;;;29.71;36.37
8637;BME280;4356;49.068;8.658;2022-08-19T10:43:19;99558.50;;;29.75;36.73
8637;BME280;4356;49.068;8.658;2022-08-19T10:45:51;99541.88;;;29.75;36.87
8637;BME280;4356;49.068;8.658;2022-08-19T10:48:17;99552.66;;;29.76;36.97
8637;BME280;4356;49.068;8.658;2022-08-19T10:50:42;99564.78;;;29.80;36.68
8637;BME280;4356;49.068;8.658;2022-08-19T10:53:26;99546.50;;;29.79;36.64
8637;BME280;4356;49.068;8.658;2022-08-19T10:55:51;99550.09;;;29.80;36.48
8637;BME280;4356;49.068;8.658;2022-08-19T10:58:35;99543.63;;;29.84;36.54
8637;BME280;4356;49.068;8.658;2022-08-19T11:01:01;99530.59;;;29.85;36.47
8637;BME280;4356;49.068;8.658;2022-08-19T11:06:55;99524.97;;;29.90;36.38
8637;BME280;4356;49.068;8.658;2022-08-19T11:09:23;99526.63;;;29.91;36.33
8637;BME280;4356;49.068;8.658;2022-08-19T11:11:50;99514.72;;;29.90;36.10
8637;BME280;4356;49.068;8.658;2022-08-19T11:14:18;99513.81;;;29.95;35.94
8637;BME280;4356;49.068;8.658;2022-08-19T11:23:53;99506.69;;;30.02;36.09
8637;BME280;4356;49.068;8.658;2022-08-19T11:26:22;99511.44;;;30.02;36.26
8637;BME280;4356;49.068;8.658;2022-08-19T11:29:28;99510.50;;;30.06;36.01
8637;BME280;4356;49.068;8.658;2022-08-19T11:31:54;99502.19;;;30.06;35.76
8637;BME280;4356;49.068;8.658;2022-08-19T11:37:41;99503.75;;;30.12;35.90
8637;BME280;4356;49.068;8.658;2022-08-19T11:40:29;99513.38;;;30.15;35.39
8637;BME280;4356;49.068;8.658;2022-08-19T11:42:55;99513.38;;;30.15;35.65
8637;BME280;4356;49.068;8.658;2022-08-19T11:48:56;99506.28;;;30.22;35.32
8637;BME280;4356;49.068;8.658;2022-08-19T11:54:43;99490.09;;;30.16;34.97
8637;BME280;4356;49.068;8.658;2022-08-19T11:57:09;99513.09;;;30.30;34.82
8637;BME280;4356;49.068;8.658;2022-08-19T11:59:34;99514.13;;;30.34;34.89
8637;BME280;4356;49.068;8.658;2022-08-19T12:05:21;99518.94;;;30.42;34.59
8637;BME280;4356;49.068;8.658;2022-08-19T12:07:47;99517.81;;;30.43;34.60
8637;BME280;4356;49.068;8.658;2022-08-19T12:23:30;99523.44;;;30.52;33.66
8637;BME280;4356;49.068;8.658;2022-08-19T12:29:19;99522.22;;;30.58;34.05
8637;BME280;4356;49.068;8.658;2022-08-19T12:31:44;99521.06;;;30.59;33.73
8637;BME280;4356;49.068;8.658;2022-08-19T12:34:11;99512.94;;;30.62;33.55
8637;BME280;4356;49.068;8.658;2022-08-19T12:36:36;99517.38;;;30.63;33.53
8637;BME280;4356;49.068;8.658;2022-08-19T12:39:02;99521.16;;;30.67;33.02
8637;BME280;4356;49.068;8.658;2022-08-19T12:41:29;99517.25;;;30.68;32.71
8637;BME280;4356;49.068;8.658;2022-08-19T12:43:54;99506.03;;;30.73;32.82
8637;BME280;4356;49.068;8.658;2022-08-19T12:46:20;99510.66;;;30.78;32.78
8637;BME280;4356;49.068;8.658;2022-08-19T12:48:46;99503.78;;;30.75;32.66
8637;BME280;4356;49.068;8.658;2022-08-19T12:51:15;99495.63;;;30.79;32.15
8637;BME280;4356;49.068;8.658;2022-08-19T12:53:42;99504.19;;;30.82;32.24
8637;BME280;4356;49.068;8.658;2022-08-19T12:56:09;99506.34;;;30.85;31.93
8637;BME280;4356;49.068;8.658;2022-08-19T12:58:35;99501.59;;;30.86;32.11
8637;BME280;4356;49.068;8.658;2022-08-19T13:01:11;99501.19;;;30.92;32.11
8637;BME280;4356;49.068;8.658;2022-08-19T13:03:37;99511.97;;;30.94;32.09
8637;BME280;4356;49.068;8.658;2022-08-19T13:23:42;99500.09;;;31.02;31.89
8637;BME280;4356;49.068;8.658;2022-08-19T13:26:08;99502.28;;;31.05;32.13
8637;BME280;4356;49.068;8.658;2022-08-19T13:28:39;99508.66;;;31.05;32.07
8637;BME280;4356;49.068;8.658;2022-08-19T13:31:26;99506.69;;;31.06;31.74
8637;BME280;4356;49.068;8.658;2022-08-19T13:34:10;99504.41;;;31.08;32.01
8637;BME280;4356;49.068;8.658;2022-08-19T13:36:37;99508.53;;;31.10;31.99
8637;BME280;4356;49.068;8.658;2022-08-19T13:42:24;99518.97;;;31.13;32.48
8637;BME280;4356;49.068;8.658;2022-08-19T13:44:53;99514.25;;;31.14;32.30
8637;BME280;4356;49.068;8.658;2022-08-19T13:47:19;99514.25;;;31.14;32.28
8637;BME280;4356;49.068;8.658;2022-08-19T13:50:23;99514.44;;;31.17;31.99
8637;BME280;4356;49.068;8.658;2022-08-19T13:52:52;99514.97;;;31.19;32.38
8637;BME280;4356;49.068;8.658;2022-08-19T13:55:18;99514.97;;;31.19;32.25
8637;BME280;4356;49.068;8.658;2022-08-19T13:57:44;99498.63;;;31.18;32.16
8637;BME280;4356;49.068;8.658;2022-08-19T14:00:14;99501.25;;;31.23;32.43
8637;BME280;4356;49.068;8.658;2022-08-19T14:03:02;99510.91;;;31.25;32.14
8637;BME280;4356;49.068;8.658;2022-08-19T14:05:28;99505.66;;;31.24;31.63
8637;BME280;4356;49.068;8.658;2022-08-19T14:11:16;99495.38;;;31.24;31.71
8637;BME280;4356;49.068;8.658;2022-08-19T14:13:42;99487.91;;;31.25;31.49
8637;BME280;4356;49.068;8.658;2022-08-19T14:16:09;99490.66;;;31.25;31.85
8637;BME280;4356;49.068;8.658;2022-08-19T14:19:12;99494.44;;;31.29;32.02
8637;BME280;4356;49.068;8.658;2022-08-19T14:21:44;99496.41;;;31.28;31.64
8637;BME280;4356;49.068;8.658;2022-08-19T14:24:09;99490.53;;;31.30;31.60
8637;BME280;4356;49.068;8.658;2022-08-19T14:29:56;99486.59;;;31.31;31.62
8637;BME280;4356;49.068;8.658;2022-08-19T14:38:52;99492.66;;;31.33;31.21
8637;BME280;4356;49.068;8.658;2022-08-19T14:41:21;99488.78;;;31.34;31.28
8637;BME280;4356;49.068;8.658;2022-08-19T14:47:08;99484.34;;;31.33;31.20
8637;BME280;4356;49.068;8.658;2022-08-19T14:49:34;99488.47;;;31.36;31.31
8637;BME280;4356;49.068;8.658;2022-08-19T14:55:50;99480.97;;;31.36;31.29
8637;BME280;4356;49.068;8.658;2022-08-19T14:58:16;99480.44;;;31.34;31.39
8637;BME280;4356;49.068;8.658;2022-08-19T15:00:41;99474.88;;;31.34;31.39
8637;BME280;4356;49.068;8.658;2022-08-19T15:03:06;99482.94;;;31.36;31.14